Terminal Aerodrome Forecast
Issued by NWS

Home | Current Version | Previous Version | Text Only | Print | Product List | Glossary On
Versions: 1 2 3 4 5 6 7 8 9 10 11 12 13 14 15 16 17
000
FTUS41 KBGM 251136
TAFITH
TAF
KITH 251136Z 2512/2612 31007KT P6SM OVC011
      TEMPO 2512/2514 BKN004
     FM251400 32007KT P6SM OVC012
      TEMPO 2514/2518 OVC007
     FM252200 34006KT P6SM OVC015
     FM260400 00000KT 5SM BR BKN012
     FM260700 00000KT 3SM BR BKN008=

USA.gov is the U.S. government's official web portal to all federal, state and local government web resources and services.